createdAt,value
2022-08-02T00:00:08.000Z,18.75
2022-08-02T00:01:08.000Z,18.78
2022-08-02T00:02:08.000Z,18.75
2022-08-02T00:03:08.000Z,18.76
2022-08-02T00:04:08.000Z,18.74
2022-08-02T00:05:08.000Z,18.74
2022-08-02T00:06:08.000Z,18.71
2022-08-02T00:07:08.000Z,18.71
2022-08-02T00:08:08.000Z,18.71
2022-08-02T00:09:08.000Z,18.72
2022-08-02T00:10:08.000Z,18.71
2022-08-02T00:11:08.000Z,18.66
2022-08-02T00:12:08.000Z,18.68
2022-08-02T00:13:08.000Z,18.69
2022-08-02T00:14:08.000Z,18.64
2022-08-02T00:15:08.000Z,18.60
2022-08-02T00:16:08.000Z,18.60
2022-08-02T00:17:08.000Z,18.62
2022-08-02T00:18:08.000Z,18.57
2022-08-02T00:19:08.000Z,18.56
2022-08-02T00:19:08.000Z,18.56
2022-08-02T00:20:08.000Z,18.54
2022-08-02T00:20:08.000Z,18.54
2022-08-02T00:21:08.000Z,18.54
2022-08-02T00:21:08.000Z,18.54
2022-08-02T00:22:08.000Z,18.54
2022-08-02T00:22:08.000Z,18.54
2022-08-02T00:23:08.000Z,18.54
2022-08-02T00:23:08.000Z,18.54
2022-08-02T00:24:08.000Z,18.54
2022-08-02T00:25:08.000Z,18.53
2022-08-02T00:26:08.000Z,18.54
2022-08-02T00:27:08.000Z,18.54
2022-08-02T00:28:08.000Z,18.51
2022-08-02T00:29:08.000Z,18.51
2022-08-02T00:29:08.000Z,18.51
2022-08-02T00:29:08.000Z,18.51
2022-08-02T00:30:08.000Z,18.51
2022-08-02T00:30:08.000Z,18.51
2022-08-02T00:30:08.000Z,18.51
2022-08-02T00:31:08.000Z,18.50
2022-08-02T00:31:08.000Z,18.50
2022-08-02T00:31:08.000Z,18.50
2022-08-02T00:32:08.000Z,18.51
2022-08-02T00:32:08.000Z,18.51
2022-08-02T00:32:08.000Z,18.51
2022-08-02T00:33:08.000Z,18.50
2022-08-02T00:33:08.000Z,18.50
2022-08-02T00:33:08.000Z,18.50
2022-08-02T00:34:08.000Z,18.51
2022-08-02T00:34:08.000Z,18.51
2022-08-02T00:35:08.000Z,18.49
2022-08-02T00:35:08.000Z,18.49
2022-08-02T00:36:08.000Z,18.44
2022-08-02T00:36:08.000Z,18.44
2022-08-02T00:37:08.000Z,18.47
2022-08-02T00:37:08.000Z,18.47
2022-08-02T00:38:08.000Z,18.44
2022-08-02T00:38:08.000Z,18.44
2022-08-02T00:39:08.000Z,18.44
2022-08-02T00:40:08.000Z,18.38
2022-08-02T00:41:08.000Z,18.41
2022-08-02T00:42:08.000Z,18.38
2022-08-02T00:43:08.000Z,18.32
2022-08-02T00:44:08.000Z,18.35
2022-08-02T00:45:08.000Z,18.34
2022-08-02T00:46:08.000Z,18.29
2022-08-02T00:47:08.000Z,18.25
2022-08-02T00:48:08.000Z,18.25
2022-08-02T00:49:08.000Z,18.25
2022-08-02T00:50:08.000Z,18.21
2022-08-02T00:51:08.000Z,18.20
2022-08-02T00:52:08.000Z,18.19
2022-08-02T00:53:08.000Z,18.14
2022-08-02T00:54:08.000Z,18.14
2022-08-02T00:55:08.000Z,18.11
2022-08-02T00:56:08.000Z,18.09
2022-08-02T00:57:08.000Z,18.05
2022-08-02T00:58:08.000Z,18.09
2022-08-02T00:59:08.000Z,18.02
2022-08-02T00:59:08.000Z,18.02
2022-08-02T01:00:08.000Z,17.99
2022-08-02T01:00:08.000Z,17.99
2022-08-02T01:01:08.000Z,17.96
2022-08-02T01:01:08.000Z,17.96
2022-08-02T01:02:07.000Z,17.94
2022-08-02T01:02:07.000Z,17.94
2022-08-02T01:03:07.000Z,17.95
2022-08-02T01:03:07.000Z,17.95
2022-08-02T01:04:07.000Z,17.94
2022-08-02T01:05:07.000Z,17.91
2022-08-02T01:06:07.000Z,17.91
2022-08-02T01:07:07.000Z,17.86
2022-08-02T01:08:07.000Z,17.86
2022-08-02T01:09:07.000Z,17.83
2022-08-02T01:10:07.000Z,17.80
2022-08-02T01:11:07.000Z,17.76
2022-08-02T01:12:07.000Z,17.71
2022-08-02T01:13:07.000Z,17.74
2022-08-02T01:14:07.000Z,17.71
2022-08-02T01:15:07.000Z,17.70
2022-08-02T01:16:07.000Z,17.66
2022-08-02T01:17:07.000Z,17.62
2022-08-02T01:18:07.000Z,17.63
2022-08-02T01:19:07.000Z,17.55
2022-08-02T01:20:07.000Z,17.55
2022-08-02T01:21:07.000Z,17.53
2022-08-02T01:22:07.000Z,17.47
2022-08-02T01:23:07.000Z,17.47
2022-08-02T01:24:07.000Z,17.43
2022-08-02T01:25:07.000Z,17.43
2022-08-02T01:26:07.000Z,17.39
2022-08-02T01:27:07.000Z,17.39
2022-08-02T01:28:07.000Z,17.38
2022-08-02T01:29:07.000Z,17.32
2022-08-02T01:30:07.000Z,17.32
2022-08-02T01:31:07.000Z,17.24
2022-08-02T01:32:07.000Z,17.25
2022-08-02T01:33:07.000Z,17.21
2022-08-02T01:34:07.000Z,17.18
2022-08-02T01:34:07.000Z,17.18
2022-08-02T01:34:07.000Z,17.18
2022-08-02T01:35:07.000Z,17.15
2022-08-02T01:35:07.000Z,17.15
2022-08-02T01:35:07.000Z,17.15
2022-08-02T01:36:07.000Z,17.14
2022-08-02T01:36:07.000Z,17.14
2022-08-02T01:36:07.000Z,17.14
2022-08-02T01:37:07.000Z,17.14
2022-08-02T01:37:07.000Z,17.14
2022-08-02T01:37:07.000Z,17.14
2022-08-02T01:38:07.000Z,17.15
2022-08-02T01:38:07.000Z,17.15
2022-08-02T01:38:07.000Z,17.15
2022-08-02T01:39:07.000Z,17.09
2022-08-02T01:39:07.000Z,17.09
2022-08-02T01:40:07.000Z,17.06
2022-08-02T01:40:07.000Z,17.06
2022-08-02T01:41:07.000Z,17.06
2022-08-02T01:41:07.000Z,17.06
2022-08-02T01:42:07.000Z,17.02
2022-08-02T01:42:07.000Z,17.02
2022-08-02T01:43:07.000Z,17.02
2022-08-02T01:43:07.000Z,17.02
2022-08-02T01:44:07.000Z,16.96
2022-08-02T01:45:07.000Z,16.98
2022-08-02T01:46:07.000Z,16.91
2022-08-02T01:47:07.000Z,16.90
2022-08-02T01:48:07.000Z,16.91
2022-08-02T01:49:07.000Z,16.88
2022-08-02T01:50:07.000Z,16.87
2022-08-02T01:51:07.000Z,16.84
2022-08-02T01:52:07.000Z,16.81
2022-08-02T01:53:07.000Z,16.82
2022-08-02T01:54:07.000Z,16.81
2022-08-02T01:55:07.000Z,16.81
2022-08-02T01:56:07.000Z,16.80
2022-08-02T01:57:07.000Z,16.80
2022-08-02T01:58:07.000Z,16.80
2022-08-02T01:59:07.000Z,16.78
2022-08-02T02:00:07.000Z,16.78
2022-08-02T02:01:07.000Z,16.75
2022-08-02T02:02:07.000Z,16.72
2022-08-02T02:03:07.000Z,16.80
2022-08-02T02:04:07.000Z,16.77
2022-08-02T02:05:07.000Z,16.75
2022-08-02T02:06:07.000Z,16.78
2022-08-02T02:07:07.000Z,16.77
2022-08-02T02:08:07.000Z,16.77
2022-08-02T02:09:07.000Z,16.73
2022-08-02T02:10:07.000Z,16.77
2022-08-02T02:11:07.000Z,16.78
2022-08-02T02:12:07.000Z,16.78
2022-08-02T02:13:07.000Z,16.80
2022-08-02T02:14:06.000Z,16.75
2022-08-02T02:14:06.000Z,16.75
2022-08-02T02:15:06.000Z,16.80
2022-08-02T02:15:06.000Z,16.80
2022-08-02T02:16:06.000Z,16.77
2022-08-02T02:16:06.000Z,16.77
2022-08-02T02:17:06.000Z,16.77
2022-08-02T02:17:06.000Z,16.77
2022-08-02T02:18:06.000Z,16.77
2022-08-02T02:18:06.000Z,16.77
2022-08-02T02:19:06.000Z,16.72
2022-08-02T02:20:06.000Z,16.72
2022-08-02T02:21:06.000Z,16.69
2022-08-02T02:22:06.000Z,16.65
2022-08-02T02:23:06.000Z,16.65
2022-08-02T02:24:06.000Z,16.63
2022-08-02T02:25:06.000Z,16.66
2022-08-02T02:26:06.000Z,16.59
2022-08-02T02:27:06.000Z,16.59
2022-08-02T02:28:06.000Z,16.57
2022-08-02T02:29:06.000Z,16.51
2022-08-02T02:30:06.000Z,16.48
2022-08-02T02:31:06.000Z,16.50
2022-08-02T02:32:06.000Z,16.45
2022-08-02T02:33:06.000Z,16.44
2022-08-02T02:34:06.000Z,16.44
2022-08-02T02:35:06.000Z,16.40
2022-08-02T02:36:06.000Z,16.36
2022-08-02T02:37:06.000Z,16.36
2022-08-02T02:38:06.000Z,16.33
2022-08-02T02:39:06.000Z,16.33
2022-08-02T02:40:06.000Z,16.32
2022-08-02T02:41:06.000Z,16.32
2022-08-02T02:42:06.000Z,16.33
2022-08-02T02:43:06.000Z,16.30
2022-08-02T02:44:06.000Z,16.32
2022-08-02T02:45:06.000Z,16.32
2022-08-02T02:46:06.000Z,16.26
2022-08-02T02:47:06.000Z,16.29
2022-08-02T02:48:06.000Z,16.30
2022-08-02T02:49:06.000Z,16.29
2022-08-02T02:49:06.000Z,16.29
2022-08-02T02:50:06.000Z,16.25
2022-08-02T02:50:06.000Z,16.25
2022-08-02T02:51:06.000Z,16.27
2022-08-02T02:51:06.000Z,16.27
2022-08-02T02:52:06.000Z,16.25
2022-08-02T02:52:06.000Z,16.25
2022-08-02T02:53:06.000Z,16.25
2022-08-02T02:53:06.000Z,16.25
2022-08-02T02:54:06.000Z,16.26
2022-08-02T02:55:06.000Z,16.26
2022-08-02T02:56:06.000Z,16.22
2022-08-02T02:57:06.000Z,16.25
2022-08-02T02:58:06.000Z,16.23
2022-08-02T02:59:06.000Z,16.22
2022-08-02T03:00:06.000Z,16.23
2022-08-02T03:01:06.000Z,16.23
2022-08-02T03:02:06.000Z,16.25
2022-08-02T03:03:06.000Z,16.22
2022-08-02T03:04:06.000Z,16.23
2022-08-02T03:05:06.000Z,16.25
2022-08-02T03:06:06.000Z,16.22
2022-08-02T03:07:06.000Z,16.25
2022-08-02T03:08:06.000Z,16.27
2022-08-02T03:09:06.000Z,16.29
2022-08-02T03:10:06.000Z,16.32
2022-08-02T03:11:06.000Z,16.33
2022-08-02T03:12:06.000Z,16.30
2022-08-02T03:13:06.000Z,16.29
2022-08-02T03:14:06.000Z,16.33
2022-08-02T03:15:06.000Z,16.36
2022-08-02T03:16:06.000Z,16.37
2022-08-02T03:17:06.000Z,16.36
2022-08-02T03:18:06.000Z,16.41
2022-08-02T03:19:06.000Z,16.41
2022-08-02T03:19:06.000Z,16.41
2022-08-02T03:20:06.000Z,16.42
2022-08-02T03:20:06.000Z,16.42
2022-08-02T03:21:06.000Z,16.45
2022-08-02T03:21:06.000Z,16.45
2022-08-02T03:22:06.000Z,16.45
2022-08-02T03:22:06.000Z,16.45
2022-08-02T03:23:06.000Z,16.47
2022-08-02T03:23:06.000Z,16.47
2022-08-02T03:24:06.000Z,16.50
2022-08-02T03:25:06.000Z,16.47
2022-08-02T03:26:05.000Z,16.47
2022-08-02T03:27:05.000Z,16.51
2022-08-02T03:28:05.000Z,16.50
2022-08-02T03:29:05.000Z,16.50
2022-08-02T03:30:05.000Z,16.50
2022-08-02T03:31:05.000Z,16.48
2022-08-02T03:32:05.000Z,16.48
2022-08-02T03:33:05.000Z,16.51
2022-08-02T03:34:05.000Z,16.48
2022-08-02T03:35:05.000Z,16.48
2022-08-02T03:36:05.000Z,16.48
2022-08-02T03:37:05.000Z,16.47
2022-08-02T03:38:05.000Z,16.48
2022-08-02T03:39:05.000Z,16.47
2022-08-02T03:40:05.000Z,16.45
2022-08-02T03:41:05.000Z,16.47
2022-08-02T03:42:05.000Z,16.42
2022-08-02T03:43:05.000Z,16.45
2022-08-02T03:44:05.000Z,16.47
2022-08-02T03:45:05.000Z,16.44
2022-08-02T03:46:05.000Z,16.42
2022-08-02T03:47:05.000Z,16.45
2022-08-02T03:48:05.000Z,16.45
2022-08-02T03:49:05.000Z,16.45
2022-08-02T03:50:05.000Z,16.47
2022-08-02T03:51:05.000Z,16.44
2022-08-02T03:52:05.000Z,16.45
2022-08-02T03:53:05.000Z,16.50
2022-08-02T03:54:05.000Z,16.47
2022-08-02T03:55:05.000Z,16.47
2022-08-02T03:56:05.000Z,16.44
2022-08-02T03:57:05.000Z,16.42
2022-08-02T03:58:05.000Z,16.47
2022-08-02T03:59:05.000Z,16.42
2022-08-02T04:00:05.000Z,16.41
2022-08-02T04:01:05.000Z,16.44
2022-08-02T04:02:05.000Z,16.44
2022-08-02T04:03:05.000Z,16.41
2022-08-02T04:04:05.000Z,16.44
2022-08-02T04:05:05.000Z,16.44
2022-08-02T04:06:05.000Z,16.42
2022-08-02T04:07:05.000Z,16.45
2022-08-02T04:08:05.000Z,16.47
2022-08-02T04:09:05.000Z,16.44
2022-08-02T04:10:05.000Z,16.44
2022-08-02T04:11:05.000Z,16.42
2022-08-02T04:12:05.000Z,16.42
2022-08-02T04:13:05.000Z,16.44
2022-08-02T04:14:05.000Z,16.44
2022-08-02T04:15:05.000Z,16.44
2022-08-02T04:16:05.000Z,16.45
2022-08-02T04:17:05.000Z,16.44
2022-08-02T04:18:05.000Z,16.44
2022-08-02T04:19:05.000Z,16.47
2022-08-02T04:19:05.000Z,16.47
2022-08-02T04:20:05.000Z,16.47
2022-08-02T04:20:05.000Z,16.47
2022-08-02T04:21:05.000Z,16.44
2022-08-02T04:21:05.000Z,16.44
2022-08-02T04:22:05.000Z,16.47
2022-08-02T04:22:05.000Z,16.47
2022-08-02T04:23:05.000Z,16.48
2022-08-02T04:23:05.000Z,16.48
2022-08-02T04:24:05.000Z,16.48
2022-08-02T04:25:05.000Z,16.50
2022-08-02T04:26:05.000Z,16.52
2022-08-02T04:27:05.000Z,16.55
2022-08-02T04:28:05.000Z,16.55
2022-08-02T04:29:05.000Z,16.55
2022-08-02T04:30:05.000Z,16.59
2022-08-02T04:31:05.000Z,16.52
2022-08-02T04:32:05.000Z,16.59
2022-08-02T04:33:05.000Z,16.59
2022-08-02T04:34:05.000Z,16.54
2022-08-02T04:35:05.000Z,16.55
2022-08-02T04:36:05.000Z,16.57
2022-08-02T04:37:05.000Z,16.55
2022-08-02T04:38:04.000Z,16.54
2022-08-02T04:39:04.000Z,16.55
2022-08-02T04:40:04.000Z,16.55
2022-08-02T04:41:04.000Z,16.57
2022-08-02T04:42:04.000Z,16.57
2022-08-02T04:43:04.000Z,16.57
2022-08-02T04:44:04.000Z,16.62
2022-08-02T04:45:04.000Z,16.63
2022-08-02T04:46:04.000Z,16.65
2022-08-02T04:47:04.000Z,16.69
2022-08-02T04:48:04.000Z,16.69
2022-08-02T04:49:04.000Z,16.69
2022-08-02T04:50:04.000Z,16.72
2022-08-02T04:51:04.000Z,16.73
2022-08-02T04:52:04.000Z,16.75
2022-08-02T04:53:04.000Z,16.77
2022-08-02T04:54:04.000Z,16.80
2022-08-02T04:55:04.000Z,16.78
2022-08-02T04:56:04.000Z,16.80
2022-08-02T04:57:04.000Z,16.77
2022-08-02T04:58:04.000Z,16.82
2022-08-02T04:59:04.000Z,16.80
2022-08-02T05:00:04.000Z,16.80
2022-08-02T05:01:04.000Z,16.82
2022-08-02T05:02:04.000Z,16.81
2022-08-02T05:03:04.000Z,16.82
2022-08-02T05:04:04.000Z,16.82
2022-08-02T05:05:04.000Z,16.81
2022-08-02T05:06:04.000Z,16.82
2022-08-02T05:07:04.000Z,16.84
2022-08-02T05:08:04.000Z,16.87
2022-08-02T05:09:04.000Z,16.90
2022-08-02T05:10:04.000Z,16.96
2022-08-02T05:11:04.000Z,16.98
2022-08-02T05:12:04.000Z,17.05
2022-08-02T05:13:04.000Z,17.06
2022-08-02T05:14:04.000Z,17.09
2022-08-02T05:15:04.000Z,17.17
2022-08-02T05:16:04.000Z,17.18
2022-08-02T05:17:04.000Z,17.24
2022-08-02T05:18:04.000Z,17.28
2022-08-02T05:19:04.000Z,17.30
2022-08-02T05:20:04.000Z,17.35
2022-08-02T05:21:04.000Z,17.36
2022-08-02T05:22:04.000Z,17.43
2022-08-02T05:23:04.000Z,17.43
2022-08-02T05:24:04.000Z,17.46
2022-08-02T05:25:04.000Z,17.53
2022-08-02T05:26:04.000Z,17.54
2022-08-02T05:27:04.000Z,17.57
2022-08-02T05:28:04.000Z,17.58
2022-08-02T05:29:04.000Z,17.62
2022-08-02T05:30:04.000Z,17.58
2022-08-02T05:31:04.000Z,17.63
2022-08-02T05:32:04.000Z,17.65
2022-08-02T05:33:04.000Z,17.66
2022-08-02T05:34:04.000Z,17.68
2022-08-02T05:34:04.000Z,17.68
2022-08-02T05:35:04.000Z,17.66
2022-08-02T05:35:04.000Z,17.66
2022-08-02T05:36:04.000Z,17.68
2022-08-02T05:36:04.000Z,17.68
2022-08-02T05:37:04.000Z,17.73
2022-08-02T05:37:04.000Z,17.73
2022-08-02T05:38:04.000Z,17.76
2022-08-02T05:38:04.000Z,17.76
2022-08-02T05:39:04.000Z,17.83
2022-08-02T05:40:04.000Z,17.83
2022-08-02T05:41:04.000Z,17.91
2022-08-02T05:42:04.000Z,17.94
2022-08-02T05:43:04.000Z,18.02
2022-08-02T05:44:04.000Z,18.11
2022-08-02T05:45:04.000Z,18.17
2022-08-02T05:46:04.000Z,18.19
2022-08-02T05:47:04.000Z,18.26
2022-08-02T05:48:04.000Z,18.21
2022-08-02T05:49:04.000Z,18.26
2022-08-02T05:50:03.000Z,18.29
2022-08-02T05:51:03.000Z,18.29
2022-08-02T05:52:03.000Z,18.31
2022-08-02T05:53:03.000Z,18.28
2022-08-02T05:54:03.000Z,18.29
2022-08-02T05:55:03.000Z,18.34
2022-08-02T05:56:03.000Z,18.28
2022-08-02T05:57:03.000Z,18.26
2022-08-02T05:58:03.000Z,18.28
2022-08-02T05:59:03.000Z,18.26
2022-08-02T06:00:03.000Z,18.32
2022-08-02T06:01:03.000Z,18.34
2022-08-02T06:02:03.000Z,18.39
2022-08-02T06:03:03.000Z,18.46
2022-08-02T06:04:03.000Z,18.49
2022-08-02T06:05:03.000Z,18.53
2022-08-02T06:06:03.000Z,18.57
2022-08-02T06:07:03.000Z,18.64
2022-08-02T06:08:03.000Z,18.66
2022-08-02T06:09:03.000Z,18.68
2022-08-02T06:10:03.000Z,18.66
2022-08-02T06:11:03.000Z,18.71
2022-08-02T06:12:03.000Z,18.66
2022-08-02T06:13:03.000Z,18.65
2022-08-02T06:14:03.000Z,18.65
2022-08-02T06:15:03.000Z,18.60
2022-08-02T06:16:03.000Z,18.59
2022-08-02T06:17:03.000Z,18.62
2022-08-02T06:18:03.000Z,18.64
2022-08-02T06:19:03.000Z,18.62
2022-08-02T06:20:03.000Z,18.66
2022-08-02T06:21:03.000Z,18.71
2022-08-02T06:22:03.000Z,18.69
2022-08-02T06:23:03.000Z,18.72
2022-08-02T06:24:03.000Z,18.72
2022-08-02T06:25:03.000Z,18.78
2022-08-02T06:26:03.000Z,18.83
2022-08-02T06:27:03.000Z,18.83
2022-08-02T06:28:03.000Z,18.84
2022-08-02T06:29:03.000Z,18.86
2022-08-02T06:30:03.000Z,18.89
2022-08-02T06:31:03.000Z,18.96
2022-08-02T06:32:03.000Z,18.99
2022-08-02T06:33:03.000Z,19.05
2022-08-02T06:34:03.000Z,19.05
2022-08-02T06:35:03.000Z,19.06
2022-08-02T06:36:03.000Z,19.10
2022-08-02T06:37:03.000Z,19.13
2022-08-02T06:38:03.000Z,19.17
2022-08-02T06:39:03.000Z,19.21
2022-08-02T06:39:03.000Z,19.21
2022-08-02T06:40:03.000Z,19.24
2022-08-02T06:40:03.000Z,19.24
2022-08-02T06:41:03.000Z,19.30
2022-08-02T06:41:03.000Z,19.30
2022-08-02T06:42:03.000Z,19.30
2022-08-02T06:42:03.000Z,19.30
2022-08-02T06:43:03.000Z,19.38
2022-08-02T06:43:03.000Z,19.38
2022-08-02T06:44:03.000Z,19.43
2022-08-02T06:45:03.000Z,19.42
2022-08-02T06:46:03.000Z,19.47
2022-08-02T06:47:03.000Z,19.50
2022-08-02T06:48:03.000Z,19.52
2022-08-02T06:49:03.000Z,19.53
2022-08-02T06:50:03.000Z,19.58
2022-08-02T06:51:03.000Z,19.60
2022-08-02T06:52:03.000Z,19.61
2022-08-02T06:53:03.000Z,19.58
2022-08-02T06:54:03.000Z,19.58
2022-08-02T06:55:03.000Z,19.64
2022-08-02T06:56:03.000Z,19.61
2022-08-02T06:57:03.000Z,19.61
2022-08-02T06:58:03.000Z,19.65
2022-08-02T06:59:03.000Z,19.71
2022-08-02T07:00:03.000Z,19.70
2022-08-02T07:01:03.000Z,19.75
2022-08-02T07:02:02.000Z,19.78
2022-08-02T07:03:02.000Z,19.82
2022-08-02T07:04:02.000Z,19.83
2022-08-02T07:04:02.000Z,19.83
2022-08-02T07:05:02.000Z,19.82
2022-08-02T07:05:02.000Z,19.82
2022-08-02T07:06:02.000Z,19.80
2022-08-02T07:06:02.000Z,19.80
2022-08-02T07:07:02.000Z,19.83
2022-08-02T07:07:02.000Z,19.83
2022-08-02T07:08:02.000Z,19.83
2022-08-02T07:08:02.000Z,19.83
2022-08-02T07:09:02.000Z,19.86
2022-08-02T07:10:02.000Z,19.83
2022-08-02T07:11:02.000Z,19.94
2022-08-02T07:12:02.000Z,19.98
2022-08-02T07:13:02.000Z,20.02
2022-08-02T07:14:02.000Z,20.05
2022-08-02T07:15:02.000Z,20.16
2022-08-02T07:16:02.000Z,20.26
2022-08-02T07:17:02.000Z,20.37
2022-08-02T07:18:02.000Z,20.50
2022-08-02T07:19:02.000Z,20.61
2022-08-02T07:20:02.000Z,20.72
2022-08-02T07:21:02.000Z,20.73
2022-08-02T07:22:02.000Z,20.79
2022-08-02T07:23:02.000Z,20.87
2022-08-02T07:24:02.000Z,20.91
2022-08-02T07:25:02.000Z,20.96
2022-08-02T07:26:02.000Z,21.00
2022-08-02T07:27:02.000Z,21.03
2022-08-02T07:28:02.000Z,21.06
2022-08-02T07:29:02.000Z,21.06
2022-08-02T07:30:02.000Z,21.16
2022-08-02T07:31:02.000Z,21.22
2022-08-02T07:32:02.000Z,21.21
2022-08-02T07:33:02.000Z,21.19
2022-08-02T07:34:02.000Z,21.24
2022-08-02T07:35:02.000Z,21.22
2022-08-02T07:36:02.000Z,21.21
2022-08-02T07:37:02.000Z,21.21
2022-08-02T07:38:02.000Z,21.15
2022-08-02T07:39:02.000Z,21.36
2022-08-02T07:40:02.000Z,21.51
2022-08-02T07:41:02.000Z,21.74
2022-08-02T07:42:02.000Z,22.09
2022-08-02T07:43:02.000Z,22.54
2022-08-02T07:44:02.000Z,22.89
2022-08-02T07:45:02.000Z,22.94
2022-08-02T07:46:02.000Z,23.23
2022-08-02T07:47:02.000Z,23.45
2022-08-02T07:48:02.000Z,23.67
2022-08-02T07:49:02.000Z,23.50
2022-08-02T07:49:02.000Z,23.50
2022-08-02T07:50:02.000Z,23.75
2022-08-02T07:50:02.000Z,23.75
2022-08-02T07:51:02.000Z,24.00
2022-08-02T07:51:02.000Z,24.00
2022-08-02T07:52:02.000Z,24.26
2022-08-02T07:52:02.000Z,24.26
2022-08-02T07:53:02.000Z,24.49
2022-08-02T07:53:02.000Z,24.49
2022-08-02T07:54:02.000Z,24.79
2022-08-02T07:55:02.000Z,24.71
2022-08-02T07:56:02.000Z,24.68
2022-08-02T07:57:02.000Z,24.90
2022-08-02T07:58:02.000Z,25.07
2022-08-02T07:59:02.000Z,25.27
2022-08-02T08:00:02.000Z,25.44
2022-08-02T08:01:02.000Z,25.57
2022-08-02T08:02:02.000Z,25.44
2022-08-02T08:03:02.000Z,25.51
2022-08-02T08:04:02.000Z,25.63
2022-08-02T08:05:02.000Z,25.60
2022-08-02T08:06:02.000Z,25.69
2022-08-02T08:07:02.000Z,25.86
2022-08-02T08:08:02.000Z,25.98
2022-08-02T08:09:02.000Z,26.03
2022-08-02T08:09:02.000Z,26.03
2022-08-02T08:10:02.000Z,26.08
2022-08-02T08:10:02.000Z,26.08
2022-08-02T08:11:02.000Z,26.13
2022-08-02T08:11:02.000Z,26.13
2022-08-02T08:12:02.000Z,26.19
2022-08-02T08:12:02.000Z,26.19
2022-08-02T08:13:02.000Z,26.19
2022-08-02T08:13:02.000Z,26.19
2022-08-02T08:14:01.000Z,26.23
2022-08-02T08:15:01.000Z,26.29
2022-08-02T08:16:01.000Z,26.35
2022-08-02T08:17:01.000Z,26.44
2022-08-02T08:18:01.000Z,26.53
2022-08-02T08:19:01.000Z,26.75
2022-08-02T08:20:01.000Z,26.97
2022-08-02T08:21:01.000Z,27.20
2022-08-02T08:22:01.000Z,27.46
2022-08-02T08:23:01.000Z,27.74
2022-08-02T08:24:01.000Z,27.78
2022-08-02T08:25:01.000Z,27.61
2022-08-02T08:26:01.000Z,27.48
2022-08-02T08:27:01.000Z,27.45
2022-08-02T08:28:01.000Z,27.61
2022-08-02T08:29:01.000Z,27.80
2022-08-02T08:30:01.000Z,28.02
2022-08-02T08:31:01.000Z,28.06
2022-08-02T08:32:01.000Z,27.77
2022-08-02T08:33:01.000Z,27.31
2022-08-02T08:34:01.000Z,27.12
2022-08-02T08:35:01.000Z,27.02
2022-08-02T08:36:01.000Z,27.18
2022-08-02T08:37:01.000Z,27.33
2022-08-02T08:38:01.000Z,27.39
2022-08-02T08:39:01.000Z,27.27
2022-08-02T08:40:01.000Z,27.09
2022-08-02T08:41:01.000Z,27.08
2022-08-02T08:42:01.000Z,27.24
2022-08-02T08:43:01.000Z,27.48
2022-08-02T08:44:01.000Z,27.58
2022-08-02T08:45:01.000Z,27.55
2022-08-02T08:46:01.000Z,27.76
2022-08-02T08:47:01.000Z,28.06
2022-08-02T08:48:01.000Z,28.36
2022-08-02T08:49:01.000Z,28.45
2022-08-02T08:50:01.000Z,28.70
2022-08-02T08:51:01.000Z,28.77
2022-08-02T08:52:01.000Z,28.74
2022-08-02T08:53:01.000Z,28.52
2022-08-02T08:54:01.000Z,28.64
2022-08-02T08:55:01.000Z,28.77
2022-08-02T08:56:01.000Z,28.79
2022-08-02T08:57:01.000Z,28.72
2022-08-02T08:58:01.000Z,28.73
2022-08-02T08:59:01.000Z,28.88
2022-08-02T09:00:01.000Z,28.98
2022-08-02T09:01:01.000Z,29.05
2022-08-02T09:02:01.000Z,28.98
2022-08-02T09:03:01.000Z,28.92
2022-08-02T09:04:01.000Z,28.89
2022-08-02T09:05:01.000Z,28.79
2022-08-02T09:06:01.000Z,28.76
2022-08-02T09:07:01.000Z,28.72
2022-08-02T09:08:01.000Z,28.72
2022-08-02T09:09:01.000Z,28.82
2022-08-02T09:10:01.000Z,28.91
2022-08-02T09:11:01.000Z,28.89
2022-08-02T09:12:01.000Z,28.72
2022-08-02T09:13:01.000Z,28.80
2022-08-02T09:14:01.000Z,28.88
2022-08-02T09:15:01.000Z,29.07
2022-08-02T09:16:01.000Z,29.20
2022-08-02T09:17:01.000Z,29.15
2022-08-02T09:18:01.000Z,29.20
2022-08-02T09:19:01.000Z,29.15
2022-08-02T09:20:01.000Z,29.26
2022-08-02T09:21:01.000Z,29.37
2022-08-02T09:22:01.000Z,29.20
2022-08-02T09:23:01.000Z,28.94
2022-08-02T09:24:01.000Z,28.70
2022-08-02T09:25:01.000Z,28.25
2022-08-02T09:26:01.000Z,28.17
2022-08-02T09:27:01.000Z,28.18
2022-08-02T09:28:00.000Z,28.33
2022-08-02T09:29:00.000Z,28.36
2022-08-02T09:30:00.000Z,28.55
2022-08-02T09:31:00.000Z,28.60
2022-08-02T09:32:00.000Z,28.61
2022-08-02T09:33:00.000Z,28.73
2022-08-02T09:34:00.000Z,28.76
2022-08-02T09:35:00.000Z,28.80
2022-08-02T09:36:00.000Z,28.91
2022-08-02T09:37:00.000Z,28.98
2022-08-02T09:38:00.000Z,29.12
2022-08-02T09:39:00.000Z,29.17
2022-08-02T09:39:00.000Z,29.17
2022-08-02T09:40:00.000Z,29.27
2022-08-02T09:40:00.000Z,29.27
2022-08-02T09:41:00.000Z,29.20
2022-08-02T09:41:00.000Z,29.20
2022-08-02T09:42:00.000Z,28.89
2022-08-02T09:42:00.000Z,28.89
2022-08-02T09:43:00.000Z,28.85
2022-08-02T09:43:00.000Z,28.85
2022-08-02T09:44:00.000Z,28.98
2022-08-02T09:45:00.000Z,28.98
2022-08-02T09:46:00.000Z,28.92
2022-08-02T09:47:00.000Z,28.85
2022-08-02T09:48:00.000Z,29.03
2022-08-02T09:49:00.000Z,29.29
2022-08-02T09:50:00.000Z,29.36
2022-08-02T09:51:00.000Z,29.25
2022-08-02T09:52:00.000Z,29.20
2022-08-02T09:53:00.000Z,29.15
2022-08-02T09:54:00.000Z,29.35
2022-08-02T09:55:00.000Z,29.52
2022-08-02T09:56:00.000Z,29.73
2022-08-02T09:57:00.000Z,29.91
2022-08-02T09:58:00.000Z,30.04
2022-08-02T09:59:00.000Z,29.97
2022-08-02T10:00:00.000Z,29.73
2022-08-02T10:01:00.000Z,29.82
2022-08-02T10:02:00.000Z,29.88
2022-08-02T10:03:00.000Z,29.92
2022-08-02T10:04:00.000Z,30.01
2022-08-02T10:05:00.000Z,30.16
2022-08-02T10:06:00.000Z,30.28
2022-08-02T10:07:00.000Z,30.16
2022-08-02T10:08:00.000Z,29.99
2022-08-02T10:09:00.000Z,29.70
2022-08-02T10:10:00.000Z,29.66
2022-08-02T10:11:00.000Z,29.52
2022-08-02T10:12:00.000Z,29.55
2022-08-02T10:13:00.000Z,29.47
2022-08-02T10:14:00.000Z,29.26
2022-08-02T10:15:00.000Z,29.27
2022-08-02T10:16:00.000Z,29.18
2022-08-02T10:17:00.000Z,29.10
2022-08-02T10:18:00.000Z,29.11
2022-08-02T10:19:00.000Z,29.10
2022-08-02T10:20:00.000Z,28.87
2022-08-02T10:21:00.000Z,28.69
2022-08-02T10:22:00.000Z,28.85
2022-08-02T10:23:00.000Z,29.03
2022-08-02T10:24:00.000Z,29.30
2022-08-02T10:25:00.000Z,29.49
2022-08-02T10:26:00.000Z,29.71
2022-08-02T10:27:00.000Z,29.70
2022-08-02T10:28:00.000Z,29.74
2022-08-02T10:29:00.000Z,29.88
2022-08-02T10:30:00.000Z,30.01
2022-08-02T10:31:00.000Z,29.92
2022-08-02T10:32:00.000Z,29.85
2022-08-02T10:33:00.000Z,29.88
2022-08-02T10:34:00.000Z,29.95
2022-08-02T10:35:00.000Z,29.92
2022-08-02T10:36:00.000Z,30.00
2022-08-02T10:37:00.000Z,30.13
2022-08-02T10:38:00.000Z,30.21
2022-08-02T10:39:00.000Z,30.30
2022-08-02T10:39:00.000Z,30.30
2022-08-02T10:39:00.000Z,30.30
2022-08-02T10:40:00.000Z,30.48
2022-08-02T10:40:00.000Z,30.48
2022-08-02T10:40:00.000Z,30.48
2022-08-02T10:41:00.000Z,30.46
2022-08-02T10:41:00.000Z,30.46
2022-08-02T10:41:00.000Z,30.46
2022-08-02T10:41:59.000Z,30.54
2022-08-02T10:41:59.000Z,30.54
2022-08-02T10:41:59.000Z,30.54
2022-08-02T10:42:59.000Z,30.49
2022-08-02T10:42:59.000Z,30.49
2022-08-02T10:42:59.000Z,30.49
2022-08-02T10:43:59.000Z,30.56
2022-08-02T10:43:59.000Z,30.56
2022-08-02T10:44:59.000Z,30.49
2022-08-02T10:44:59.000Z,30.49
2022-08-02T10:45:59.000Z,30.37
2022-08-02T10:45:59.000Z,30.37
2022-08-02T10:46:59.000Z,30.08
2022-08-02T10:46:59.000Z,30.08
2022-08-02T10:47:59.000Z,30.03
2022-08-02T10:47:59.000Z,30.03
2022-08-02T10:48:59.000Z,29.91
2022-08-02T10:49:59.000Z,29.91
2022-08-02T10:50:59.000Z,30.01
2022-08-02T10:51:59.000Z,30.13
2022-08-02T10:52:59.000Z,30.37
2022-08-02T10:53:59.000Z,30.60
2022-08-02T10:54:59.000Z,30.70
2022-08-02T10:55:59.000Z,30.54
2022-08-02T10:56:59.000Z,30.40
2022-08-02T10:57:59.000Z,30.38
2022-08-02T10:58:59.000Z,30.59
2022-08-02T10:59:59.000Z,30.83
2022-08-02T11:00:59.000Z,30.96
2022-08-02T11:01:59.000Z,31.05
2022-08-02T11:02:59.000Z,31.22
2022-08-02T11:03:59.000Z,31.13
2022-08-02T11:04:59.000Z,31.05
2022-08-02T11:05:59.000Z,31.03
2022-08-02T11:06:59.000Z,31.07